createdAt,value
2017-09-25T00:00:46.627Z,16.98
2017-09-25T00:03:14.965Z,16.97
2017-09-25T00:05:43.296Z,16.95
2017-09-25T00:08:11.652Z,17.00
2017-09-25T00:10:40.759Z,17.00
2017-09-25T00:13:09.861Z,16.96
2017-09-25T00:15:38.994Z,16.97
2017-09-25T00:18:07.335Z,16.93
2017-09-25T00:20:36.442Z,16.92
2017-09-25T00:23:04.818Z,16.91
2017-09-25T00:25:33.152Z,16.90
2017-09-25T00:28:01.492Z,16.87
2017-09-25T00:30:29.859Z,16.92
2017-09-25T00:32:58.961Z,16.90
2017-09-25T00:35:27.305Z,16.87
2017-09-25T00:37:55.672Z,16.89
2017-09-25T00:40:24.038Z,16.89
2017-09-25T00:42:52.362Z,16.91
2017-09-25T00:45:22.419Z,16.92
2017-09-25T00:47:50.747Z,16.96
2017-09-25T00:50:19.084Z,16.95
2017-09-25T00:53:05.387Z,16.96
2017-09-25T00:55:51.881Z,16.98
2017-09-25T00:58:20.263Z,16.98
2017-09-25T01:01:06.351Z,16.97
2017-09-25T01:03:52.415Z,16.93
2017-09-25T01:06:30.692Z,16.88
2017-09-25T01:08:59.056Z,16.74
2017-09-25T01:11:27.386Z,16.75
2017-09-25T01:13:56.513Z,16.76
2017-09-25T01:16:24.890Z,16.76
2017-09-25T01:18:53.989Z,16.65
2017-09-25T01:21:23.090Z,16.60
2017-09-25T01:23:52.218Z,16.65
2017-09-25T01:26:20.553Z,16.66
2017-09-25T01:28:49.651Z,16.68
2017-09-25T01:31:18.805Z,16.71
2017-09-25T01:33:47.173Z,16.72
2017-09-25T01:36:15.502Z,16.75
2017-09-25T01:38:43.874Z,16.80
2017-09-25T01:41:12.209Z,16.87
2017-09-25T01:43:40.546Z,16.83
2017-09-25T01:46:09.667Z,16.86
2017-09-25T01:48:37.998Z,16.84
2017-09-25T01:51:06.331Z,16.82
2017-09-25T01:53:34.691Z,16.82
2017-09-25T01:56:03.796Z,16.83
2017-09-25T01:58:32.895Z,16.72
2017-09-25T02:01:02.030Z,16.69
2017-09-25T02:03:30.362Z,16.65
2017-09-25T02:05:59.466Z,16.64
2017-09-25T02:08:28.600Z,16.58
2017-09-25T02:10:56.933Z,16.57
2017-09-25T02:13:26.035Z,16.41
2017-09-25T02:15:55.156Z,16.43
2017-09-25T02:18:23.483Z,16.50
2017-09-25T02:20:51.814Z,16.49
2017-09-25T02:23:20.236Z,16.41
2017-09-25T02:25:48.576Z,16.45
2017-09-25T02:28:16.919Z,16.36
2017-09-25T02:30:45.276Z,16.37
2017-09-25T02:33:13.611Z,16.30
2017-09-25T02:35:41.961Z,16.24
2017-09-25T02:38:10.332Z,16.23
2017-09-25T02:40:38.681Z,16.20
2017-09-25T02:43:07.060Z,16.22
2017-09-25T02:45:35.422Z,16.29
2017-09-25T02:48:03.783Z,16.34
2017-09-25T02:50:32.878Z,16.40
2017-09-25T02:53:02.005Z,16.30
2017-09-25T02:55:30.343Z,16.25
2017-09-25T02:57:59.475Z,16.22
2017-09-25T03:00:27.875Z,16.09
2017-09-25T03:02:56.199Z,16.03
2017-09-25T03:05:24.548Z,15.88
2017-09-25T03:07:52.925Z,15.85
2017-09-25T03:10:21.271Z,15.80
2017-09-25T03:12:49.613Z,15.60
2017-09-25T03:15:17.996Z,15.62
2017-09-25T03:17:46.353Z,15.69
2017-09-25T03:20:14.722Z,15.74
2017-09-25T03:22:43.100Z,15.76
2017-09-25T03:25:11.434Z,15.80
2017-09-25T03:27:40.544Z,15.79
2017-09-25T03:30:09.694Z,15.75
2017-09-25T03:32:38.032Z,15.83
2017-09-25T03:35:06.372Z,15.90
2017-09-25T03:37:34.727Z,15.89
2017-09-25T03:40:03.050Z,15.94
2017-09-25T03:42:32.148Z,15.94
2017-09-25T03:45:01.291Z,15.98
2017-09-25T03:47:29.627Z,16.02
2017-09-25T03:49:58.724Z,15.93
2017-09-25T03:52:27.847Z,15.83
2017-09-25T03:54:56.185Z,15.66
2017-09-25T03:57:24.520Z,15.54
2017-09-25T03:59:52.902Z,15.64
2017-09-25T04:02:21.231Z,15.71
2017-09-25T04:04:49.567Z,15.79
2017-09-25T04:07:17.936Z,15.78
2017-09-25T04:09:46.282Z,15.84
2017-09-25T04:12:15.391Z,15.85
2017-09-25T04:14:44.535Z,15.87
2017-09-25T04:17:12.875Z,15.87
2017-09-25T04:19:41.984Z,15.87
2017-09-25T04:22:10.359Z,15.86
2017-09-25T04:24:38.710Z,15.79
2017-09-25T04:27:07.059Z,15.74
2017-09-25T04:29:36.348Z,15.77
2017-09-25T04:32:04.675Z,15.79
2017-09-25T04:34:33.006Z,15.80
2017-09-25T04:37:01.387Z,15.80
2017-09-25T04:39:29.735Z,15.73
2017-09-25T04:41:58.846Z,15.75
2017-09-25T04:44:27.206Z,15.75
2017-09-25T04:46:56.331Z,15.76
2017-09-25T04:49:24.675Z,15.80
2017-09-25T04:51:53.826Z,15.80
2017-09-25T04:54:22.162Z,15.82
2017-09-25T04:56:51.260Z,15.88
2017-09-25T04:59:20.397Z,15.94
2017-09-25T05:01:48.743Z,15.96
2017-09-25T05:04:17.840Z,16.00
2017-09-25T05:06:46.977Z,16.05
2017-09-25T05:09:15.311Z,16.06
2017-09-25T05:11:44.412Z,16.05
2017-09-25T05:14:13.538Z,16.07
2017-09-25T05:16:41.881Z,16.06
2017-09-25T05:19:10.319Z,16.07
2017-09-25T05:21:38.684Z,16.08
2017-09-25T05:24:07.025Z,16.11
2017-09-25T05:26:36.129Z,16.09
2017-09-25T05:29:05.271Z,16.04
2017-09-25T05:31:33.615Z,16.01
2017-09-25T05:34:02.721Z,15.98
2017-09-25T05:36:31.855Z,16.04
2017-09-25T05:39:00.197Z,16.05
2017-09-25T05:41:28.564Z,16.03
2017-09-25T05:43:57.856Z,16.04
2017-09-25T05:46:26.190Z,16.02
2017-09-25T05:48:54.521Z,16.02
2017-09-25T05:51:22.884Z,15.98
2017-09-25T05:53:51.219Z,15.99
2017-09-25T05:56:19.535Z,15.89
2017-09-25T05:58:47.895Z,15.87
2017-09-25T06:01:16.219Z,15.92
2017-09-25T06:03:44.562Z,15.97
2017-09-25T06:06:12.918Z,15.89
2017-09-25T06:08:41.383Z,15.85
2017-09-25T06:11:10.476Z,15.86
2017-09-25T06:13:39.608Z,15.97
2017-09-25T06:16:07.976Z,16.02
2017-09-25T06:18:36.302Z,16.04
2017-09-25T06:21:04.680Z,16.12
2017-09-25T06:23:33.026Z,16.12
2017-09-25T06:26:01.400Z,16.06
2017-09-25T06:28:29.829Z,16.21
2017-09-25T06:30:58.291Z,16.37
2017-09-25T06:33:27.486Z,16.42
2017-09-25T06:35:56.076Z,16.49
2017-09-25T06:38:24.419Z,16.55
2017-09-25T06:40:52.750Z,16.52
2017-09-25T06:43:21.104Z,16.52
2017-09-25T06:45:49.438Z,16.54
2017-09-25T06:48:18.535Z,16.62
2017-09-25T06:50:47.657Z,16.71
2017-09-25T06:53:15.979Z,16.71
2017-09-25T06:55:44.488Z,16.84
2017-09-25T06:58:12.847Z,16.93
2017-09-25T07:00:41.183Z,17.03
2017-09-25T07:03:09.514Z,17.12
2017-09-25T07:05:37.872Z,17.23
2017-09-25T07:08:06.200Z,17.31
2017-09-25T07:10:35.297Z,17.46
2017-09-25T07:13:04.431Z,17.48
2017-09-25T07:15:32.766Z,17.55
2017-09-25T07:18:01.101Z,17.59
2017-09-25T07:20:29.456Z,17.55
2017-09-25T07:22:57.800Z,17.64
2017-09-25T07:25:26.131Z,17.57
2017-09-25T07:27:54.491Z,17.58
2017-09-25T07:30:23.588Z,17.64
2017-09-25T07:32:52.679Z,17.65
2017-09-25T07:35:21.056Z,17.77
2017-09-25T07:37:50.176Z,17.85
2017-09-25T07:40:18.520Z,17.95
2017-09-25T07:42:46.871Z,17.96
2017-09-25T07:45:15.207Z,17.89
2017-09-25T07:47:43.544Z,17.78
2017-09-25T07:50:11.965Z,17.81
2017-09-25T07:52:41.065Z,17.90
2017-09-25T07:55:09.407Z,17.54
2017-09-25T07:57:37.768Z,17.64
2017-09-25T08:00:06.136Z,17.70
2017-09-25T08:02:34.470Z,17.67
2017-09-25T08:05:03.612Z,17.65
2017-09-25T08:07:31.943Z,17.77
2017-09-25T08:10:01.047Z,17.89
2017-09-25T08:12:30.188Z,18.04
2017-09-25T08:14:58.527Z,18.10
2017-09-25T08:17:27.622Z,18.17
2017-09-25T08:19:56.740Z,18.31
2017-09-25T08:22:25.076Z,18.28
2017-09-25T08:24:53.420Z,18.42
2017-09-25T08:27:21.775Z,18.47
2017-09-25T08:29:50.171Z,18.73
2017-09-25T08:32:18.500Z,18.85
2017-09-25T08:34:46.887Z,18.99
2017-09-25T08:37:15.219Z,19.19
2017-09-25T08:39:43.551Z,19.28
2017-09-25T08:42:11.906Z,19.36
2017-09-25T08:44:40.269Z,19.49
2017-09-25T08:47:08.618Z,19.34
2017-09-25T08:49:37.756Z,19.45
2017-09-25T08:52:06.089Z,19.39
2017-09-25T08:54:35.217Z,19.54
2017-09-25T08:57:03.590Z,19.66
2017-09-25T08:59:31.961Z,19.64
2017-09-25T09:02:00.301Z,19.61
2017-09-25T09:04:28.663Z,19.66
2017-09-25T09:06:57.003Z,19.71
2017-09-25T09:09:25.337Z,19.89
2017-09-25T09:11:54.556Z,19.96
2017-09-25T09:14:22.883Z,19.99
2017-09-25T09:16:51.240Z,20.01
2017-09-25T09:19:19.576Z,20.00
2017-09-25T09:21:47.899Z,19.97
2017-09-25T09:24:17.023Z,20.07
2017-09-25T09:26:45.355Z,19.91
2017-09-25T09:29:13.705Z,20.05
2017-09-25T09:31:42.651Z,20.16
2017-09-25T09:34:10.987Z,19.65
2017-09-25T09:36:39.331Z,19.97
2017-09-25T09:39:07.691Z,20.19
2017-09-25T09:41:36.051Z,20.44
2017-09-25T09:44:05.166Z,20.00
2017-09-25T09:46:34.283Z,20.44
2017-09-25T09:49:02.638Z,20.62
2017-09-25T09:51:31.780Z,20.33
2017-09-25T09:54:00.136Z,20.59
2017-09-25T09:56:28.480Z,20.37
2017-09-25T09:58:56.865Z,20.65
2017-09-25T10:01:25.247Z,20.67
2017-09-25T10:03:55.584Z,20.83
2017-09-25T10:06:24.714Z,20.87
2017-09-25T10:08:53.067Z,20.89
2017-09-25T10:11:22.177Z,21.09
2017-09-25T10:13:50.548Z,21.14
2017-09-25T10:16:19.651Z,21.14
2017-09-25T10:18:48.757Z,20.90
2017-09-25T10:21:17.113Z,20.94
2017-09-25T10:23:46.236Z,20.52
2017-09-25T10:26:14.576Z,19.76
2017-09-25T10:28:42.933Z,20.37
2017-09-25T10:31:11.272Z,20.30
2017-09-25T10:33:39.605Z,20.41
2017-09-25T10:36:07.963Z,20.56
2017-09-25T10:38:36.297Z,20.56
2017-09-25T10:41:05.425Z,20.46
2017-09-25T10:43:33.769Z,20.41
2017-09-25T10:46:02.134Z,20.46
2017-09-25T10:48:30.519Z,20.31
2017-09-25T10:50:58.855Z,20.10
2017-09-25T10:53:27.189Z,20.28
2017-09-25T10:55:57.562Z,20.34
2017-09-25T10:58:25.924Z,19.93
2017-09-25T11:00:54.285Z,19.92
2017-09-25T11:03:23.391Z,19.44
2017-09-25T11:05:51.766Z,19.78
2017-09-25T11:08:20.914Z,20.11
2017-09-25T11:10:49.256Z,20.45
2017-09-25T11:13:18.363Z,20.65
2017-09-25T11:15:46.737Z,20.84
2017-09-25T11:18:15.072Z,21.13
2017-09-25T11:20:43.408Z,21.07
2017-09-25T11:23:11.802Z,20.76
2017-09-25T11:25:40.152Z,21.01
2017-09-25T11:28:09.267Z,21.41
2017-09-25T11:30:37.631Z,20.96
2017-09-25T11:33:06.738Z,21.32
2017-09-25T11:35:35.073Z,21.10
2017-09-25T11:38:03.459Z,21.65
2017-09-25T11:40:31.819Z,21.96
2017-09-25T11:43:00.148Z,22.02
2017-09-25T11:45:29.284Z,22.10
2017-09-25T11:47:57.871Z,21.32
2017-09-25T11:50:26.208Z,21.63
2017-09-25T11:52:55.343Z,21.77
2017-09-25T11:55:23.691Z,21.83
2017-09-25T11:57:52.815Z,21.85
2017-09-25T12:00:21.172Z,22.12
2017-09-25T12:02:50.288Z,22.03
2017-09-25T12:05:18.638Z,21.77
2017-09-25T12:07:47.020Z,21.80
2017-09-25T12:10:16.142Z,21.91
2017-09-25T12:12:44.480Z,21.84
2017-09-25T12:15:12.861Z,22.16
2017-09-25T12:17:41.193Z,22.21
2017-09-25T12:20:09.524Z,22.37
2017-09-25T12:22:37.888Z,22.33
2017-09-25T12:25:06.224Z,22.26
2017-09-25T12:27:34.568Z,22.22
2017-09-25T12:30:02.938Z,22.16
2017-09-25T12:32:31.276Z,21.99
2017-09-25T12:34:59.609Z,21.91
2017-09-25T12:37:27.971Z,21.88
2017-09-25T12:39:56.301Z,21.79
2017-09-25T12:42:24.638Z,21.68
2017-09-25T12:44:53.001Z,21.61
2017-09-25T12:47:21.328Z,21.59
2017-09-25T12:49:50.429Z,21.62
2017-09-25T12:52:19.594Z,21.66
2017-09-25T12:54:47.959Z,21.60
2017-09-25T12:57:16.291Z,21.48
2017-09-25T13:02:27.393Z,21.28
2017-09-25T13:04:55.800Z,20.39
2017-09-25T13:07:24.131Z,20.27
2017-09-25T13:09:53.482Z,20.49
2017-09-25T13:12:21.852Z,20.55
2017-09-25T13:14:50.188Z,20.56
2017-09-25T13:17:18.518Z,20.58
2017-09-25T13:19:46.879Z,20.52
2017-09-25T13:22:15.212Z,20.46
2017-09-25T13:24:43.555Z,20.46
2017-09-25T13:27:11.927Z,20.36
2017-09-25T13:29:40.343Z,20.30
2017-09-25T13:32:08.701Z,20.16
2017-09-25T13:34:37.037Z,19.98
2017-09-25T13:37:05.369Z,19.96
2017-09-25T13:39:33.723Z,20.03
2017-09-25T13:42:02.066Z,20.01
2017-09-25T13:44:30.401Z,20.03
2017-09-25T13:46:58.761Z,20.09
2017-09-25T13:49:27.135Z,20.18
2017-09-25T13:51:57.025Z,20.22
2017-09-25T13:54:25.364Z,20.30
2017-09-25T13:56:53.691Z,20.43
2017-09-25T14:04:29.156Z,20.84
2017-09-25T14:06:57.514Z,21.07
2017-09-25T14:09:25.860Z,21.36
2017-09-25T14:11:54.268Z,21.53
2017-09-25T14:14:22.610Z,21.73
2017-09-25T14:16:51.727Z,21.70
2017-09-25T14:19:20.083Z,21.78
2017-09-25T14:21:49.184Z,21.63
2017-09-25T14:24:18.284Z,21.78
2017-09-25T14:26:47.427Z,21.82
2017-09-25T14:29:15.795Z,21.85
2017-09-25T14:31:44.128Z,21.80
2017-09-25T14:34:12.484Z,21.89
2017-09-25T14:36:40.820Z,21.48
2017-09-25T14:39:09.152Z,21.06
2017-09-25T14:41:37.508Z,21.47
2017-09-25T14:44:05.882Z,21.63
2017-09-25T14:46:34.243Z,21.66
2017-09-25T14:49:02.613Z,21.26
2017-09-25T14:51:31.755Z,21.51
2017-09-25T14:54:00.099Z,21.69
2017-09-25T14:56:28.476Z,21.75
2017-09-25T14:58:56.822Z,21.71
2017-09-25T15:01:25.151Z,21.69
2017-09-25T15:03:53.508Z,21.80
2017-09-25T15:06:22.607Z,21.74
2017-09-25T15:08:51.735Z,21.65
2017-09-25T15:11:20.077Z,21.59
2017-09-25T15:13:49.186Z,21.48
2017-09-25T15:16:18.332Z,21.43
2017-09-25T15:18:46.726Z,21.22
2017-09-25T15:21:15.260Z,21.26
2017-09-25T15:23:43.626Z,21.22
2017-09-25T15:26:12.736Z,21.21
2017-09-25T15:28:41.843Z,21.23
2017-09-25T15:31:10.223Z,21.20
2017-09-25T15:33:38.555Z,21.14
2017-09-25T15:36:06.890Z,21.10
2017-09-25T15:38:35.262Z,21.03
2017-09-25T15:41:03.612Z,20.95
2017-09-25T15:43:32.775Z,20.81
2017-09-25T15:46:01.164Z,20.75
2017-09-25T15:48:29.508Z,20.71
2017-09-25T15:50:57.849Z,20.61
2017-09-25T15:53:26.287Z,20.58
2017-09-25T15:55:54.643Z,20.45
2017-09-25T15:58:22.971Z,20.33
2017-09-25T16:00:51.329Z,20.32
2017-09-25T16:03:19.667Z,20.22
2017-09-25T16:05:48.772Z,20.17
2017-09-25T16:08:17.900Z,20.08
2017-09-25T16:10:46.239Z,20.04
2017-09-25T16:13:15.347Z,19.99
2017-09-25T16:15:46.256Z,19.95
2017-09-25T16:18:14.680Z,19.90
2017-09-25T16:20:43.011Z,19.77
2017-09-25T16:23:11.381Z,19.72
2017-09-25T16:25:39.715Z,19.76
2017-09-25T16:28:08.112Z,19.77
2017-09-25T16:30:36.450Z,19.73
2017-09-25T16:33:04.827Z,19.68
2017-09-25T16:35:33.174Z,19.48
2017-09-25T16:38:01.545Z,19.42
2017-09-25T16:40:29.941Z,19.27
2017-09-25T16:42:58.311Z,19.11
2017-09-25T16:45:26.682Z,18.99
2017-09-25T16:47:55.039Z,18.89
2017-09-25T16:50:24.165Z,18.80
2017-09-25T16:52:52.504Z,18.66
2017-09-25T16:55:21.650Z,18.48
2017-09-25T16:57:49.980Z,18.40
2017-09-25T17:00:19.107Z,18.28
2017-09-25T17:02:47.473Z,18.16
2017-09-25T17:05:16.568Z,18.01
2017-09-25T17:07:44.911Z,17.86
2017-09-25T17:10:13.272Z,17.72
2017-09-25T17:12:41.654Z,17.61
2017-09-25T17:15:09.975Z,17.51
2017-09-25T17:17:39.137Z,17.38
2017-09-25T17:20:07.473Z,17.22
2017-09-25T17:22:36.598Z,17.06
2017-09-25T17:25:04.975Z,16.91
2017-09-25T17:27:33.345Z,16.77
2017-09-25T17:30:02.442Z,16.66
2017-09-25T17:32:30.802Z,16.54
2017-09-25T17:34:59.910Z,16.43
2017-09-25T17:37:28.265Z,16.31
2017-09-25T17:39:56.629Z,16.17
2017-09-25T17:42:24.967Z,15.97
2017-09-25T17:44:53.330Z,15.74
2017-09-25T17:47:22.449Z,15.59
2017-09-25T17:49:50.801Z,15.63
2017-09-25T17:52:19.913Z,15.63
2017-09-25T17:54:48.316Z,15.65
2017-09-25T17:57:16.676Z,15.60
2017-09-25T17:59:45.016Z,15.43
2017-09-25T18:02:13.387Z,15.34
2017-09-25T18:04:41.722Z,15.24
2017-09-25T18:07:10.102Z,15.17
2017-09-25T18:09:38.436Z,15.16
2017-09-25T18:12:06.776Z,15.06
2017-09-25T18:14:35.148Z,15.00
2017-09-25T18:17:03.500Z,14.99
2017-09-25T18:19:31.832Z,14.89
2017-09-25T18:22:00.992Z,14.88
2017-09-25T18:24:30.105Z,14.80
2017-09-25T18:26:58.438Z,14.48
2017-09-25T18:29:26.812Z,14.35
2017-09-25T18:31:55.157Z,14.21
2017-09-25T18:34:23.494Z,14.10
2017-09-25T18:36:52.634Z,14.24
2017-09-25T18:39:20.975Z,14.28
2017-09-25T18:41:50.088Z,14.27
2017-09-25T18:44:18.473Z,14.23
2017-09-25T18:46:46.808Z,14.18
2017-09-25T18:49:15.212Z,14.24
2017-09-25T18:51:44.327Z,14.23
2017-09-25T18:54:13.595Z,14.22
2017-09-25T18:56:41.965Z,14.21
2017-09-25T18:59:10.313Z,14.29
2017-09-25T19:01:38.644Z,14.34
2017-09-25T19:04:07.020Z,14.30
2017-09-25T19:06:36.161Z,14.19
2017-09-25T19:09:04.560Z,14.15
2017-09-25T19:11:32.911Z,14.13
2017-09-25T19:14:02.007Z,14.13
2017-09-25T19:16:31.157Z,14.10
2017-09-25T19:18:59.512Z,14.10
2017-09-25T19:21:27.882Z,14.04
2017-09-25T19:23:57.293Z,13.94
2017-09-25T19:26:26.463Z,13.83
2017-09-25T19:28:55.598Z,13.85
2017-09-25T19:31:23.940Z,13.94
2017-09-25T19:33:53.058Z,13.80
2017-09-25T19:36:21.429Z,13.94
2017-09-25T19:38:50.544Z,13.88
2017-09-25T19:41:19.204Z,13.99
2017-09-25T19:43:48.545Z,14.10
2017-09-25T19:46:16.911Z,14.13
2017-09-25T19:48:55.215Z,14.14
2017-09-25T19:51:24.760Z,14.12
2017-09-25T19:53:54.478Z,14.15
2017-09-25T19:56:22.815Z,14.11
2017-09-25T19:58:51.367Z,14.08
2017-09-25T20:01:20.020Z,13.96
2017-09-25T20:03:48.362Z,13.90
2017-09-25T20:06:18.723Z,13.94
2017-09-25T20:08:47.251Z,13.96
2017-09-25T20:11:16.402Z,13.97
2017-09-25T20:13:45.024Z,14.02
2017-09-25T20:16:25.305Z,13.97
2017-09-25T20:18:54.411Z,13.97
2017-09-25T20:21:23.613Z,13.78
2017-09-25T20:23:52.753Z,13.32
2017-09-25T20:26:21.195Z,13.46
2017-09-25T20:28:50.323Z,13.50
2017-09-25T20:31:18.748Z,13.56
2017-09-25T20:33:47.104Z,13.61
2017-09-25T20:36:15.447Z,13.57
2017-09-25T20:38:43.931Z,13.62
2017-09-25T20:41:13.242Z,13.70
2017-09-25T20:43:41.595Z,13.66
2017-09-25T20:46:10.739Z,13.63
2017-09-25T20:48:39.087Z,13.62
2017-09-25T20:51:08.203Z,13.58
2017-09-25T20:53:36.572Z,13.50
2017-09-25T20:56:04.920Z,13.47
2017-09-25T20:58:33.288Z,13.40
2017-09-25T21:01:01.670Z,13.38
2017-09-25T21:03:30.018Z,13.35
2017-09-25T21:05:58.417Z,13.39
2017-09-25T21:08:26.832Z,13.42
2017-09-25T21:10:55.207Z,13.37
2017-09-25T21:13:23.612Z,13.42
2017-09-25T21:15:52.000Z,13.39
2017-09-25T21:18:20.655Z,13.31
2017-09-25T21:20:49.036Z,13.17
2017-09-25T21:23:17.374Z,13.12
2017-09-25T21:25:46.600Z,13.09
2017-09-25T21:28:15.015Z,13.10
2017-09-25T21:30:44.121Z,13.02
2017-09-25T21:33:12.501Z,12.99
2017-09-25T21:35:41.621Z,12.96
2017-09-25T21:38:09.993Z,12.92
2017-09-25T21:40:38.356Z,12.79
2017-09-25T21:43:07.452Z,12.70
2017-09-25T21:45:36.549Z,12.60
2017-09-25T21:48:05.706Z,12.45
2017-09-25T21:50:34.069Z,12.53
2017-09-25T21:53:02.447Z,12.46
2017-09-25T21:55:30.787Z,12.56
2017-09-25T21:57:59.924Z,12.69
2017-09-25T22:00:28.405Z,12.73
2017-09-25T22:02:56.803Z,12.77
2017-09-25T22:05:25.243Z,12.87
2017-09-25T22:07:53.633Z,13.00
2017-09-25T22:10:22.622Z,13.07
2017-09-25T22:12:51.788Z,13.14
2017-09-25T22:15:20.136Z,13.25
2017-09-25T22:17:48.552Z,13.37
2017-09-25T22:20:16.937Z,13.34
2017-09-25T22:22:45.280Z,13.38
2017-09-25T22:25:13.619Z,13.44
2017-09-25T22:27:42.748Z,13.44
2017-09-25T22:30:11.134Z,13.52
2017-09-25T22:32:39.616Z,13.59
2017-09-25T22:35:08.120Z,13.67
2017-09-25T22:37:37.263Z,13.74
2017-09-25T22:40:06.501Z,13.75
2017-09-25T22:42:38.478Z,13.74
2017-09-25T22:45:06.957Z,13.77
2017-09-25T22:47:35.343Z,13.75
2017-09-25T22:50:03.815Z,13.60
2017-09-25T22:52:32.224Z,13.57
2017-09-25T22:55:00.612Z,13.44
2017-09-25T22:57:29.007Z,13.29
2017-09-25T22:59:58.132Z,13.20
2017-09-25T23:02:26.544Z,13.14
2017-09-25T23:05:09.789Z,13.13
2017-09-25T23:07:38.196Z,13.15
2017-09-25T23:10:08.351Z,13.17
2017-09-25T23:12:36.783Z,13.26
2017-09-25T23:15:05.153Z,13.35
2017-09-25T23:17:33.617Z,13.32
2017-09-25T23:20:01.980Z,13.19
2017-09-25T23:22:30.358Z,13.07
2017-09-25T23:24:58.704Z,12.98
2017-09-25T23:27:27.083Z,12.84
2017-09-25T23:29:59.855Z,12.93
2017-09-25T23:32:29.445Z,12.88
2017-09-25T23:34:57.811Z,12.87
2017-09-25T23:37:26.139Z,12.97
2017-09-25T23:39:54.503Z,13.09
2017-09-25T23:44:57.493Z,13.35
2017-09-25T23:47:25.847Z,13.55
2017-09-25T23:49:54.206Z,13.70
2017-09-25T23:52:23.321Z,13.80
2017-09-25T23:54:51.687Z,13.74
2017-09-25T23:57:20.811Z,13.49
2017-09-25T23:59:49.143Z,13.54
